sensor_id;sensor_type;location;lat;lon;timestamp;P1;durP1;ratioP1;P2;durP2;ratioP2
63398;SDS011;49533;-34.520;150.798;2024-03-23T00:54:30;4.75;;;2.40;;
63398;SDS011;49533;-34.520;150.798;2024-03-23T00:56:57;3.75;;;2.20;;
63398;SDS011;49533;-34.520;150.798;2024-03-23T00:59:24;4.70;;;2.20;;
63398;SDS011;49533;-34.520;150.798;2024-03-23T01:01:54;3.97;;;2.13;;
63398;SDS011;49533;-34.520;150.798;2024-03-23T01:04:22;5.68;;;2.20;;
63398;SDS011;49533;-34.520;150.798;2024-03-23T01:06:49;5.40;;;2.00;;
63398;SDS011;49533;-34.520;150.798;2024-03-23T01:09:16;6.18;;;2.13;;
63398;SDS011;49533;-34.520;150.798;2024-03-23T01:11:43;6.43;;;2.00;;
63398;SDS011;49533;-34.520;150.798;2024-03-23T01:14:10;6.00;;;2.17;;
63398;SDS011;49533;-34.520;150.798;2024-03-23T01:16:37;3.40;;;2.33;;
63398;SDS011;49533;-34.520;150.798;2024-03-23T01:19:04;6.57;;;2.10;;
63398;SDS011;49533;-34.520;150.798;2024-03-23T01:21:32;6.35;;;1.70;;
63398;SDS011;49533;-34.520;150.798;2024-03-23T01:23:59;6.75;;;2.50;;
63398;SDS011;49533;-34.520;150.798;2024-03-23T01:26:26;7.18;;;2.58;;
63398;SDS011;49533;-34.520;150.798;2024-03-23T01:28:53;5.10;;;1.58;;
63398;SDS011;49533;-34.520;150.798;2024-03-23T01:31:20;7.88;;;1.90;;
63398;SDS011;49533;-34.520;150.798;2024-03-23T01:33:50;2.58;;;1.48;;
63398;SDS011;49533;-34.520;150.798;2024-03-23T01:36:17;5.85;;;1.95;;
63398;SDS011;49533;-34.520;150.798;2024-03-23T01:38:45;2.95;;;1.55;;
63398;SDS011;49533;-34.520;150.798;2024-03-23T01:41:12;4.72;;;1.45;;
63398;SDS011;49533;-34.520;150.798;2024-03-23T01:43:39;3.53;;;1.58;;
63398;SDS011;49533;-34.520;150.798;2024-03-23T01:46:06;4.07;;;1.40;;
63398;SDS011;49533;-34.520;150.798;2024-03-23T01:48:33;4.03;;;1.83;;
63398;SDS011;49533;-34.520;150.798;2024-03-23T01:51:01;4.68;;;1.55;;
63398;SDS011;49533;-34.520;150.798;2024-03-23T01:53:28;5.88;;;1.90;;
63398;SDS011;49533;-34.520;150.798;2024-03-23T01:55:55;3.05;;;1.70;;
63398;SDS011;49533;-34.520;150.798;2024-03-23T01:58:23;5.15;;;2.38;;
63398;SDS011;49533;-34.520;150.798;2024-03-23T02:00:50;3.20;;;1.77;;
63398;SDS011;49533;-34.520;150.798;2024-03-23T02:03:27;4.90;;;1.60;;
63398;SDS011;49533;-34.520;150.798;2024-03-23T02:05:54;3.88;;;1.30;;
63398;SDS011;49533;-34.520;150.798;2024-03-23T02:08:23;5.97;;;1.88;;
63398;SDS011;49533;-34.520;150.798;2024-03-23T02:10:51;5.78;;;1.70;;
63398;SDS011;49533;-34.520;150.798;2024-03-23T02:13:18;3.55;;;1.65;;
63398;SDS011;49533;-34.520;150.798;2024-03-23T02:15:45;4.25;;;1.58;;
63398;SDS011;49533;-34.520;150.798;2024-03-23T02:18:13;4.53;;;1.27;;
63398;SDS011;49533;-34.520;150.798;2024-03-23T02:20:40;5.70;;;2.00;;
63398;SDS011;49533;-34.520;150.798;2024-03-23T02:23:14;2.88;;;1.40;;
63398;SDS011;49533;-34.520;150.798;2024-03-23T02:25:44;5.03;;;1.50;;
63398;SDS011;49533;-34.520;150.798;2024-03-23T02:28:12;2.63;;;1.30;;
63398;SDS011;49533;-34.520;150.798;2024-03-23T02:30:39;6.90;;;1.80;;
63398;SDS011;49533;-34.520;150.798;2024-03-23T02:33:06;4.25;;;1.50;;
63398;SDS011;49533;-34.520;150.798;2024-03-23T02:35:33;6.03;;;1.40;;
63398;SDS011;49533;-34.520;150.798;2024-03-23T02:38:00;4.05;;;1.40;;
63398;SDS011;49533;-34.520;150.798;2024-03-23T02:40:27;5.97;;;1.52;;
63398;SDS011;49533;-34.520;150.798;2024-03-23T02:42:55;7.97;;;1.60;;
63398;SDS011;49533;-34.520;150.798;2024-03-23T02:45:22;7.90;;;2.00;;
63398;SDS011;49533;-34.520;150.798;2024-03-23T02:47:49;7.65;;;1.95;;
63398;SDS011;49533;-34.520;150.798;2024-03-23T02:50:19;4.95;;;1.42;;
63398;SDS011;49533;-34.520;150.798;2024-03-23T02:52:47;8.80;;;1.77;;
63398;SDS011;49533;-34.520;150.798;2024-03-23T02:55:14;5.22;;;1.98;;
63398;SDS011;49533;-34.520;150.798;2024-03-23T02:57:42;6.22;;;1.77;;
63398;SDS011;49533;-34.520;150.798;2024-03-23T03:00:09;5.40;;;1.58;;
63398;SDS011;49533;-34.520;150.798;2024-03-23T03:02:36;5.88;;;1.45;;
63398;SDS011;49533;-34.520;150.798;2024-03-23T03:05:04;3.15;;;1.42;;
63398;SDS011;49533;-34.520;150.798;2024-03-23T03:07:32;14.45;;;3.13;;
63398;SDS011;49533;-34.520;150.798;2024-03-23T03:09:59;9.90;;;1.88;;
63398;SDS011;49533;-34.520;150.798;2024-03-23T03:12:26;5.38;;;1.23;;
63398;SDS011;49533;-34.520;150.798;2024-03-23T03:14:53;8.07;;;1.70;;
63398;SDS011;49533;-34.520;150.798;2024-03-23T03:17:20;7.72;;;2.00;;
63398;SDS011;49533;-34.520;150.798;2024-03-23T03:19:49;9.02;;;1.75;;
63398;SDS011;49533;-34.520;150.798;2024-03-23T03:22:21;5.65;;;1.67;;
63398;SDS011;49533;-34.520;150.798;2024-03-23T03:24:49;8.52;;;1.70;;
63398;SDS011;49533;-34.520;150.798;2024-03-23T03:27:16;7.43;;;1.58;;
63398;SDS011;49533;-34.520;150.798;2024-03-23T03:29:43;8.20;;;2.35;;
63398;SDS011;49533;-34.520;150.798;2024-03-23T03:32:10;5.50;;;1.50;;
63398;SDS011;49533;-34.520;150.798;2024-03-23T03:34:38;7.03;;;2.08;;
63398;SDS011;49533;-34.520;150.798;2024-03-23T03:37:05;7.00;;;1.63;;
63398;SDS011;49533;-34.520;150.798;2024-03-23T03:39:32;9.18;;;1.60;;
63398;SDS011;49533;-34.520;150.798;2024-03-23T03:41:59;6.07;;;1.75;;
63398;SDS011;49533;-34.520;150.798;2024-03-23T03:44:27;8.93;;;2.13;;
63398;SDS011;49533;-34.520;150.798;2024-03-23T03:46:54;10.30;;;1.77;;
63398;SDS011;49533;-34.520;150.798;2024-03-23T03:49:21;6.65;;;2.20;;
63398;SDS011;49533;-34.520;150.798;2024-03-23T03:51:48;4.65;;;1.90;;
63398;SDS011;49533;-34.520;150.798;2024-03-23T03:54:16;6.78;;;1.80;;
63398;SDS011;49533;-34.520;150.798;2024-03-23T03:56:43;8.57;;;1.73;;
63398;SDS011;49533;-34.520;150.798;2024-03-23T03:59:10;13.45;;;1.73;;
63398;SDS011;49533;-34.520;150.798;2024-03-23T04:01:37;9.45;;;1.95;;
63398;SDS011;49533;-34.520;150.798;2024-03-23T04:04:04;15.18;;;1.88;;
63398;SDS011;49533;-34.520;150.798;2024-03-23T04:06:32;4.85;;;1.60;;
63398;SDS011;49533;-34.520;150.798;2024-03-23T04:08:59;10.88;;;2.28;;
63398;SDS011;49533;-34.520;150.798;2024-03-23T04:11:26;6.68;;;1.95;;
63398;SDS011;49533;-34.520;150.798;2024-03-23T04:13:53;6.95;;;1.90;;
63398;SDS011;49533;-34.520;150.798;2024-03-23T04:16:31;7.65;;;1.75;;
63398;SDS011;49533;-34.520;150.798;2024-03-23T04:19:01;6.22;;;1.73;;
63398;SDS011;49533;-34.520;150.798;2024-03-23T04:21:29;6.32;;;1.52;;
63398;SDS011;49533;-34.520;150.798;2024-03-23T04:23:56;6.18;;;1.77;;
63398;SDS011;49533;-34.520;150.798;2024-03-23T04:26:23;9.68;;;2.38;;
63398;SDS011;49533;-34.520;150.798;2024-03-23T04:28:50;2.67;;;1.35;;
63398;SDS011;49533;-34.520;150.798;2024-03-23T04:31:18;8.10;;;1.25;;
63398;SDS011;49533;-34.520;150.798;2024-03-23T04:33:45;7.00;;;1.95;;
63398;SDS011;49533;-34.520;150.798;2024-03-23T04:36:12;5.22;;;1.63;;
63398;SDS011;49533;-34.520;150.798;2024-03-23T04:38:39;8.70;;;1.73;;
63398;SDS011;49533;-34.520;150.798;2024-03-23T04:41:07;6.90;;;2.25;;
63398;SDS011;49533;-34.520;150.798;2024-03-23T04:43:34;5.80;;;1.65;;
63398;SDS011;49533;-34.520;150.798;2024-03-23T04:46:01;5.53;;;1.50;;
63398;SDS011;49533;-34.520;150.798;2024-03-23T04:48:28;9.77;;;1.85;;
63398;SDS011;49533;-34.520;150.798;2024-03-23T04:50:55;6.65;;;1.40;;
63398;SDS011;49533;-34.520;150.798;2024-03-23T04:53:24;7.35;;;1.83;;
63398;SDS011;49533;-34.520;150.798;2024-03-23T04:55:54;6.95;;;1.30;;
63398;SDS011;49533;-34.520;150.798;2024-03-23T04:58:22;6.63;;;1.55;;
63398;SDS011;49533;-34.520;150.798;2024-03-23T05:00:56;9.70;;;1.63;;
63398;SDS011;49533;-34.520;150.798;2024-03-23T05:03:23;7.28;;;1.52;;
63398;SDS011;49533;-34.520;150.798;2024-03-23T05:05:50;8.27;;;1.80;;
63398;SDS011;49533;-34.520;150.798;2024-03-23T05:08:18;6.53;;;1.55;;
63398;SDS011;49533;-34.520;150.798;2024-03-23T05:10:45;3.65;;;1.17;;
63398;SDS011;49533;-34.520;150.798;2024-03-23T05:13:12;4.93;;;1.80;;
63398;SDS011;49533;-34.520;150.798;2024-03-23T05:15:40;5.07;;;1.67;;
63398;SDS011;49533;-34.520;150.798;2024-03-23T05:18:07;4.75;;;1.60;;
63398;SDS011;49533;-34.520;150.798;2024-03-23T05:20:34;8.15;;;1.88;;
63398;SDS011;49533;-34.520;150.798;2024-03-23T05:23:01;7.35;;;1.70;;
63398;SDS011;49533;-34.520;150.798;2024-03-23T05:25:28;7.65;;;1.67;;
63398;SDS011;49533;-34.520;150.798;2024-03-23T05:27:55;4.13;;;1.25;;
63398;SDS011;49533;-34.520;150.798;2024-03-23T05:30:23;5.43;;;1.60;;
63398;SDS011;49533;-34.520;150.798;2024-03-23T05:32:50;5.30;;;1.40;;
63398;SDS011;49533;-34.520;150.798;2024-03-23T05:35:17;4.07;;;1.30;;
63398;SDS011;49533;-34.520;150.798;2024-03-23T05:37:44;4.35;;;1.15;;
63398;SDS011;49533;-34.520;150.798;2024-03-23T05:40:12;2.40;;;1.20;;
63398;SDS011;49533;-34.520;150.798;2024-03-23T05:42:41;3.08;;;1.05;;
63398;SDS011;49533;-34.520;150.798;2024-03-23T05:45:08;6.78;;;1.63;;
63398;SDS011;49533;-34.520;150.798;2024-03-23T05:47:36;7.85;;;2.17;;
63398;SDS011;49533;-34.520;150.798;2024-03-23T05:50:04;4.13;;;1.17;;
63398;SDS011;49533;-34.520;150.798;2024-03-23T05:52:32;3.78;;;1.20;;
63398;SDS011;49533;-34.520;150.798;2024-03-23T05:54:59;2.95;;;1.00;;
63398;SDS011;49533;-34.520;150.798;2024-03-23T05:57:26;5.03;;;1.70;;
63398;SDS011;49533;-34.520;150.798;2024-03-23T05:59:53;5.20;;;1.40;;
63398;SDS011;49533;-34.520;150.798;2024-03-23T06:02:20;5.20;;;1.45;;
63398;SDS011;49533;-34.520;150.798;2024-03-23T06:04:48;5.10;;;1.27;;
63398;SDS011;49533;-34.520;150.798;2024-03-23T06:07:15;7.45;;;1.50;;
63398;SDS011;49533;-34.520;150.798;2024-03-23T06:09:42;4.95;;;1.58;;
63398;SDS011;49533;-34.520;150.798;2024-03-23T06:12:09;5.78;;;1.20;;
63398;SDS011;49533;-34.520;150.798;2024-03-23T06:14:36;4.68;;;1.33;;
63398;SDS011;49533;-34.520;150.798;2024-03-23T06:17:03;9.38;;;1.88;;
63398;SDS011;49533;-34.520;150.798;2024-03-23T06:19:31;5.03;;;1.35;;
63398;SDS011;49533;-34.520;150.798;2024-03-23T06:21:58;5.07;;;1.63;;
63398;SDS011;49533;-34.520;150.798;2024-03-23T06:24:25;3.95;;;1.20;;
63398;SDS011;49533;-34.520;150.798;2024-03-23T06:26:52;4.10;;;1.55;;
63398;SDS011;49533;-34.520;150.798;2024-03-23T06:29:20;4.97;;;1.10;;
63398;SDS011;49533;-34.520;150.798;2024-03-23T06:31:52;5.03;;;1.58;;
63398;SDS011;49533;-34.520;150.798;2024-03-23T06:34:20;10.15;;;1.30;;
63398;SDS011;49533;-34.520;150.798;2024-03-23T06:36:48;5.05;;;1.50;;
63398;SDS011;49533;-34.520;150.798;2024-03-23T06:39:16;3.83;;;1.00;;
63398;SDS011;49533;-34.520;150.798;2024-03-23T06:41:51;5.00;;;1.30;;
63398;SDS011;49533;-34.520;150.798;2024-03-23T06:44:19;3.08;;;1.15;;
63398;SDS011;49533;-34.520;150.798;2024-03-23T06:46:47;11.15;;;2.33;;
63398;SDS011;49533;-34.520;150.798;2024-03-23T06:49:14;5.25;;;1.08;;
63398;SDS011;49533;-34.520;150.798;2024-03-23T06:51:42;4.13;;;1.10;;
63398;SDS011;49533;-34.520;150.798;2024-03-23T06:54:09;4.38;;;1.42;;
63398;SDS011;49533;-34.520;150.798;2024-03-23T06:56:36;2.83;;;1.23;;
63398;SDS011;49533;-34.520;150.798;2024-03-23T06:59:03;1.92;;;0.93;;
63398;SDS011;49533;-34.520;150.798;2024-03-23T07:01:30;2.30;;;0.98;;
63398;SDS011;49533;-34.520;150.798;2024-03-23T07:03:57;2.60;;;1.30;;
63398;SDS011;49533;-34.520;150.798;2024-03-23T07:06:24;3.90;;;1.15;;
63398;SDS011;49533;-34.520;150.798;2024-03-23T07:08:55;3.15;;;0.98;;
63398;SDS011;49533;-34.520;150.798;2024-03-23T07:11:22;2.75;;;1.10;;
63398;SDS011;49533;-34.520;150.798;2024-03-23T07:13:50;3.47;;;1.05;;
63398;SDS011;49533;-34.520;150.798;2024-03-23T07:16:18;2.95;;;0.80;;
63398;SDS011;49533;-34.520;150.798;2024-03-23T07:18:45;1.75;;;0.90;;
63398;SDS011;49533;-34.520;150.798;2024-03-23T07:21:12;3.28;;;1.00;;
63398;SDS011;49533;-34.520;150.798;2024-03-23T07:23:44;2.00;;;0.88;;
63398;SDS011;49533;-34.520;150.798;2024-03-23T07:26:11;1.38;;;0.73;;
63398;SDS011;49533;-34.520;150.798;2024-03-23T07:28:38;3.20;;;1.00;;
63398;SDS011;49533;-34.520;150.798;2024-03-23T07:31:12;3.53;;;1.02;;
63398;SDS011;49533;-34.520;150.798;2024-03-23T07:33:43;1.67;;;0.80;;
63398;SDS011;49533;-34.520;150.798;2024-03-23T07:36:12;2.83;;;1.38;;
63398;SDS011;49533;-34.520;150.798;2024-03-23T07:38:42;2.80;;;1.23;;
63398;SDS011;49533;-34.520;150.798;2024-03-23T07:41:16;2.30;;;0.88;;
63398;SDS011;49533;-34.520;150.798;2024-03-23T07:43:44;1.63;;;0.70;;
63398;SDS011;49533;-34.520;150.798;2024-03-23T07:46:13;2.67;;;0.80;;
63398;SDS011;49533;-34.520;150.798;2024-03-23T07:48:41;1.67;;;0.70;;
63398;SDS011;49533;-34.520;150.798;2024-03-23T07:53:48;0.98;;;0.60;;
63398;SDS011;49533;-34.520;150.798;2024-03-23T07:56:16;3.10;;;1.00;;
63398;SDS011;49533;-34.520;150.798;2024-03-23T07:58:47;1.35;;;0.73;;
63398;SDS011;49533;-34.520;150.798;2024-03-23T08:01:14;3.45;;;0.93;;
63398;SDS011;49533;-34.520;150.798;2024-03-23T08:03:44;1.50;;;0.60;;
63398;SDS011;49533;-34.520;150.798;2024-03-23T08:06:12;2.88;;;0.93;;
63398;SDS011;49533;-34.520;150.798;2024-03-23T08:08:41;0.55;;;0.50;;
63398;SDS011;49533;-34.520;150.798;2024-03-23T08:11:10;1.38;;;0.60;;
63398;SDS011;49533;-34.520;150.798;2024-03-23T08:13:41;4.13;;;0.85;;
63398;SDS011;49533;-34.520;150.798;2024-03-23T08:16:08;1.90;;;1.00;;
63398;SDS011;49533;-34.520;150.798;2024-03-23T08:18:39;2.03;;;0.75;;
63398;SDS011;49533;-34.520;150.798;2024-03-23T08:21:06;2.70;;;0.82;;
63398;SDS011;49533;-34.520;150.798;2024-03-23T08:23:34;2.03;;;0.47;;
63398;SDS011;49533;-34.520;150.798;2024-03-23T08:26:08;2.15;;;0.75;;
63398;SDS011;49533;-34.520;150.798;2024-03-23T08:28:39;2.08;;;0.93;;
63398;SDS011;49533;-34.520;150.798;2024-03-23T08:31:07;2.78;;;0.68;;
63398;SDS011;49533;-34.520;150.798;2024-03-23T08:33:36;0.95;;;0.73;;
63398;SDS011;49533;-34.520;150.798;2024-03-23T08:36:05;0.85;;;0.63;;
63398;SDS011;49533;-34.520;150.798;2024-03-23T08:38:33;2.15;;;0.85;;
63398;SDS011;49533;-34.520;150.798;2024-03-23T08:41:02;1.20;;;0.50;;
63398;SDS011;49533;-34.520;150.798;2024-03-23T08:43:31;3.45;;;0.55;;
63398;SDS011;49533;-34.520;150.798;2024-03-23T08:46:05;1.15;;;0.60;;
63398;SDS011;49533;-34.520;150.798;2024-03-23T08:48:37;1.45;;;0.60;;
63398;SDS011;49533;-34.520;150.798;2024-03-23T08:51:07;1.13;;;0.52;;
63398;SDS011;49533;-34.520;150.798;2024-03-23T08:53:35;2.03;;;0.68;;
63398;SDS011;49533;-34.520;150.798;2024-03-23T08:56:03;0.93;;;0.60;;
63398;SDS011;49533;-34.520;150.798;2024-03-23T08:58:34;0.60;;;0.50;;
63398;SDS011;49533;-34.520;150.798;2024-03-23T09:01:04;2.55;;;0.80;;
63398;SDS011;49533;-34.520;150.798;2024-03-23T09:03:35;1.90;;;0.65;;
63398;SDS011;49533;-34.520;150.798;2024-03-23T09:06:07;1.67;;;0.88;;
63398;SDS011;49533;-34.520;150.798;2024-03-23T09:08:35;2.80;;;0.93;;
63398;SDS011;49533;-34.520;150.798;2024-03-23T09:11:10;2.30;;;0.70;;
63398;SDS011;49533;-34.520;150.798;2024-03-23T09:13:38;2.22;;;0.70;;
63398;SDS011;49533;-34.520;150.798;2024-03-23T09:16:07;2.45;;;0.95;;
63398;SDS011;49533;-34.520;150.798;2024-03-23T09:18:35;0.90;;;0.50;;
63398;SDS011;49533;-34.520;150.798;2024-03-23T09:21:03;0.85;;;0.63;;
63398;SDS011;49533;-34.520;150.798;2024-03-23T09:23:36;1.40;;;0.70;;
63398;SDS011;49533;-34.520;150.798;2024-03-23T09:26:04;1.48;;;0.80;;
63398;SDS011;49533;-34.520;150.798;2024-03-23T09:28:34;1.02;;;0.60;;
63398;SDS011;49533;-34.520;150.798;2024-03-23T09:31:05;1.50;;;0.75;;
63398;SDS011;49533;-34.520;150.798;2024-03-23T09:33:36;1.23;;;0.63;;
63398;SDS011;49533;-34.520;150.798;2024-03-23T09:36:03;1.23;;;0.50;;
63398;SDS011;49533;-34.520;150.798;2024-03-23T09:38:31;1.13;;;0.55;;
63398;SDS011;49533;-34.520;150.798;2024-03-23T09:40:58;1.95;;;0.52;;
63398;SDS011;49533;-34.520;150.798;2024-03-23T09:43:26;3.30;;;0.98;;
63398;SDS011;49533;-34.520;150.798;2024-03-23T09:45:53;1.05;;;0.57;;
63398;SDS011;49533;-34.520;150.798;2024-03-23T09:48:20;1.75;;;0.77;;
63398;SDS011;49533;-34.520;150.798;2024-03-23T09:50:47;1.98;;;0.80;;
63398;SDS011;49533;-34.520;150.798;2024-03-23T09:53:15;1.02;;;0.60;;
63398;SDS011;49533;-34.520;150.798;2024-03-23T09:55:43;2.13;;;1.10;;
63398;SDS011;49533;-34.520;150.798;2024-03-23T09:58:16;1.25;;;0.70;;
63398;SDS011;49533;-34.520;150.798;2024-03-23T10:00:44;0.90;;;0.60;;
63398;SDS011;49533;-34.520;150.798;2024-03-23T10:03:11;2.92;;;0.90;;
63398;SDS011;49533;-34.520;150.798;2024-03-23T10:05:38;1.63;;;0.88;;
63398;SDS011;49533;-34.520;150.798;2024-03-23T10:10:42;1.50;;;0.90;;
63398;SDS011;49533;-34.520;150.798;2024-03-23T10:13:10;0.68;;;0.63;;
63398;SDS011;49533;-34.520;150.798;2024-03-23T10:15:50;1.42;;;0.60;;
63398;SDS011;49533;-34.520;150.798;2024-03-23T10:18:22;2.08;;;1.08;;
63398;SDS011;49533;-34.520;150.798;2024-03-23T10:21:06;1.55;;;0.77;;
63398;SDS011;49533;-34.520;150.798;2024-03-23T10:23:37;2.53;;;0.95;;
63398;SDS011;49533;-34.520;150.798;2024-03-23T10:26:24;1.67;;;0.80;;
63398;SDS011;49533;-34.520;150.798;2024-03-23T10:28:55;2.40;;;1.00;;
63398;SDS011;49533;-34.520;150.798;2024-03-23T10:31:33;1.70;;;0.82;;
63398;SDS011;49533;-34.520;150.798;2024-03-23T10:34:02;2.47;;;0.80;;
63398;SDS011;49533;-34.520;150.798;2024-03-23T10:36:30;2.53;;;0.90;;
63398;SDS011;49533;-34.520;150.798;2024-03-23T10:38:57;1.65;;;0.85;;
63398;SDS011;49533;-34.520;150.798;2024-03-23T10:41:28;2.58;;;1.20;;
63398;SDS011;49533;-34.520;150.798;2024-03-23T10:43:58;1.88;;;1.08;;
63398;SDS011;49533;-34.520;150.798;2024-03-23T10:46:25;1.55;;;0.77;;
63398;SDS011;49533;-34.520;150.798;2024-03-23T10:48:52;1.55;;;0.90;;
63398;SDS011;49533;-34.520;150.798;2024-03-23T10:51:20;1.77;;;0.90;;
63398;SDS011;49533;-34.520;150.798;2024-03-23T10:53:47;2.25;;;1.10;;
63398;SDS011;49533;-34.520;150.798;2024-03-23T10:56:14;1.67;;;0.73;;
63398;SDS011;49533;-34.520;150.798;2024-03-23T10:58:44;1.80;;;0.93;;
63398;SDS011;49533;-34.520;150.798;2024-03-23T11:01:15;2.92;;;1.20;;
63398;SDS011;49533;-34.520;150.798;2024-03-23T11:03:46;1.58;;;0.90;;
63398;SDS011;49533;-34.520;150.798;2024-03-23T11:17:31;2.17;;;1.00;;
63398;SDS011;49533;-34.520;150.798;2024-03-23T11:20:02;2.50;;;1.02;;
63398;SDS011;49533;-34.520;150.798;2024-03-23T11:22:40;2.58;;;1.13;;
63398;SDS011;49533;-34.520;150.798;2024-03-23T11:25:18;2.60;;;1.63;;
63398;SDS011;49533;-34.520;150.798;2024-03-23T11:27:51;1.67;;;1.08;;
63398;SDS011;49533;-34.520;150.798;2024-03-23T11:30:25;1.83;;;1.00;;
63398;SDS011;49533;-34.520;150.798;2024-03-23T11:32:57;3.38;;;1.40;;
63398;SDS011;49533;-34.520;150.798;2024-03-23T11:35:27;1.70;;;0.77;;
63398;SDS011;49533;-34.520;150.798;2024-03-23T11:38:10;0.98;;;0.65;;
63398;SDS011;49533;-34.520;150.798;2024-03-23T11:40:43;2.10;;;0.82;;
63398;SDS011;49533;-34.520;150.798;2024-03-23T11:43:17;1.77;;;1.00;;
63398;SDS011;49533;-34.520;150.798;2024-03-23T11:45:50;2.13;;;1.27;;
63398;SDS011;49533;-34.520;150.798;2024-03-23T11:48:20;2.60;;;0.90;;
63398;SDS011;49533;-34.520;150.798;2024-03-23T11:50:49;1.17;;;0.82;;
63398;SDS011;49533;-34.520;150.798;2024-03-23T11:53:21;1.88;;;1.10;;
63398;SDS011;49533;-34.520;150.798;2024-03-23T11:55:50;1.67;;;0.90;;
63398;SDS011;49533;-34.520;150.798;2024-03-23T11:58:24;2.58;;;1.10;;
63398;SDS011;49533;-34.520;150.798;2024-03-23T12:01:02;1.80;;;1.00;;
63398;SDS011;49533;-34.520;150.798;2024-03-23T12:03:31;1.35;;;0.82;;
63398;SDS011;49533;-34.520;150.798;2024-03-23T12:06:02;2.88;;;0.65;;
63398;SDS011;49533;-34.520;150.798;2024-03-23T12:08:34;0.73;;;0.47;;
63398;SDS011;49533;-34.520;150.798;2024-03-23T12:11:13;1.50;;;0.63;;
63398;SDS011;49533;-34.520;150.798;2024-03-23T12:13:42;3.00;;;1.10;;
63398;SDS011;49533;-34.520;150.798;2024-03-23T12:16:18;2.70;;;1.33;;
63398;SDS011;49533;-34.520;150.798;2024-03-23T12:18:47;1.35;;;0.90;;
63398;SDS011;49533;-34.520;150.798;2024-03-23T12:21:16;2.78;;;0.80;;
63398;SDS011;49533;-34.520;150.798;2024-03-23T12:23:44;1.60;;;1.10;;
63398;SDS011;49533;-34.520;150.798;2024-03-23T12:26:12;4.15;;;0.95;;
63398;SDS011;49533;-34.520;150.798;2024-03-23T12:28:39;2.45;;;0.82;;
63398;SDS011;49533;-34.520;150.798;2024-03-23T12:31:07;2.42;;;0.80;;
63398;SDS011;49533;-34.520;150.798;2024-03-23T12:33:34;4.60;;;1.00;;
63398;SDS011;49533;-34.520;150.798;2024-03-23T12:36:04;1.63;;;0.75;;
63398;SDS011;49533;-34.520;150.798;2024-03-23T12:38:32;1.38;;;0.77;;
63398;SDS011;49533;-34.520;150.798;2024-03-23T12:40:59;1.75;;;0.70;;
63398;SDS011;49533;-34.520;150.798;2024-03-23T12:43:26;1.50;;;1.05;;
63398;SDS011;49533;-34.520;150.798;2024-03-23T12:45:53;1.40;;;0.77;;
63398;SDS011;49533;-34.520;150.798;2024-03-23T12:48:20;1.50;;;0.80;;
63398;SDS011;49533;-34.520;150.798;2024-03-23T12:50:47;1.35;;;0.60;;
63398;SDS011;49533;-34.520;150.798;2024-03-23T12:53:14;1.92;;;0.75;;
63398;SDS011;49533;-34.520;150.798;2024-03-23T12:55:42;1.10;;;0.55;;
63398;SDS011;49533;-34.520;150.798;2024-03-23T12:58:09;2.30;;;0.80;;
63398;SDS011;49533;-34.520;150.798;2024-03-23T13:00:36;1.83;;;0.75;;
63398;SDS011;49533;-34.520;150.798;2024-03-23T13:03:03;2.30;;;1.13;;
63398;SDS011;49533;-34.520;150.798;2024-03-23T13:05:31;2.60;;;0.90;;
63398;SDS011;49533;-34.520;150.798;2024-03-23T13:07:58;3.00;;;0.80;;
63398;SDS011;49533;-34.520;150.798;2024-03-23T13:10:25;2.35;;;0.73;;
63398;SDS011;49533;-34.520;150.798;2024-03-23T13:12:52;1.33;;;0.80;;
63398;SDS011;49533;-34.520;150.798;2024-03-23T13:15:19;2.50;;;0.80;;
63398;SDS011;49533;-34.520;150.798;2024-03-23T13:17:46;2.80;;;0.88;;
63398;SDS011;49533;-34.520;150.798;2024-03-23T13:20:13;1.58;;;0.65;;
63398;SDS011;49533;-34.520;150.798;2024-03-23T13:22:40;1.35;;;0.75;;
63398;SDS011;49533;-34.520;150.798;2024-03-23T13:25:07;1.65;;;0.70;;
63398;SDS011;49533;-34.520;150.798;2024-03-23T13:27:35;1.27;;;0.73;;
63398;SDS011;49533;-34.520;150.798;2024-03-23T13:30:02;2.85;;;1.15;;
63398;SDS011;49533;-34.520;150.798;2024-03-23T13:32:29;1.77;;;0.73;;
63398;SDS011;49533;-34.520;150.798;2024-03-23T13:34:57;1.25;;;0.75;;
63398;SDS011;49533;-34.520;150.798;2024-03-23T13:37:24;3.03;;;0.95;;
63398;SDS011;49533;-34.520;150.798;2024-03-23T13:39:51;0.98;;;0.60;;
63398;SDS011;49533;-34.520;150.798;2024-03-23T13:42:18;2.90;;;1.08;;
63398;SDS011;49533;-34.520;150.798;2024-03-23T13:44:45;1.73;;;0.90;;
63398;SDS011;49533;-34.520;150.798;2024-03-23T13:47:12;3.10;;;0.65;;
63398;SDS011;49533;-34.520;150.798;2024-03-23T13:49:39;1.33;;;0.70;;
63398;SDS011;49533;-34.520;150.798;2024-03-23T13:52:06;1.30;;;0.70;;
63398;SDS011;49533;-34.520;150.798;2024-03-23T13:54:33;1.30;;;0.77;;
63398;SDS011;49533;-34.520;150.798;2024-03-23T13:57:01;2.10;;;1.05;;
63398;SDS011;49533;-34.520;150.798;2024-03-23T13:59:28;0.88;;;0.47;;
63398;SDS011;49533;-34.520;150.798;2024-03-23T14:01:57;2.08;;;0.60;;
63398;SDS011;49533;-34.520;150.798;2024-03-23T14:04:24;2.00;;;0.93;;
63398;SDS011;49533;-34.520;150.798;2024-03-23T14:06:51;5.20;;;1.50;;
63398;SDS011;49533;-34.520;150.798;2024-03-23T14:09:19;1.85;;;0.60;;
63398;SDS011;49533;-34.520;150.798;2024-03-23T14:11:51;2.13;;;0.82;;
63398;SDS011;49533;-34.520;150.798;2024-03-23T14:14:18;2.03;;;0.70;;
63398;SDS011;49533;-34.520;150.798;2024-03-23T14:16:47;2.20;;;1.05;;
63398;SDS011;49533;-34.520;150.798;2024-03-23T14:19:15;1.27;;;0.98;;
63398;SDS011;49533;-34.520;150.798;2024-03-23T14:21:42;0.50;;;0.50;;
63398;SDS011;49533;-34.520;150.798;2024-03-23T14:24:09;1.45;;;0.60;;
63398;SDS011;49533;-34.520;150.798;2024-03-23T14:26:36;1.52;;;0.77;;
63398;SDS011;49533;-34.520;150.798;2024-03-23T14:29:04;1.98;;;0.63;;
63398;SDS011;49533;-34.520;150.798;2024-03-23T14:31:31;1.13;;;0.60;;
63398;SDS011;49533;-34.520;150.798;2024-03-23T14:33:58;1.63;;;0.45;;
63398;SDS011;49533;-34.520;150.798;2024-03-23T14:36:26;1.23;;;0.50;;
63398;SDS011;49533;-34.520;150.798;2024-03-23T14:38:53;1.63;;;1.00;;
63398;SDS011;49533;-34.520;150.798;2024-03-23T14:41:20;3.45;;;1.33;;
63398;SDS011;49533;-34.520;150.798;2024-03-23T14:43:47;1.02;;;0.68;;
63398;SDS011;49533;-34.520;150.798;2024-03-23T14:46:16;2.90;;;1.08;;
63398;SDS011;49533;-34.520;150.798;2024-03-23T14:48:44;3.20;;;0.80;;
63398;SDS011;49533;-34.520;150.798;2024-03-23T14:51:12;1.77;;;1.02;;
63398;SDS011;49533;-34.520;150.798;2024-03-23T14:53:39;1.20;;;0.60;;
63398;SDS011;49533;-34.520;150.798;2024-03-23T14:56:11;3.72;;;0.90;;
63398;SDS011;49533;-34.520;150.798;2024-03-23T14:58:40;1.63;;;0.70;;
63398;SDS011;49533;-34.520;150.798;2024-03-23T15:01:08;2.08;;;0.90;;
63398;SDS011;49533;-34.520;150.798;2024-03-23T15:03:36;1.80;;;0.63;;
63398;SDS011;49533;-34.520;150.798;2024-03-23T15:06:05;3.55;;;1.30;;
63398;SDS011;49533;-34.520;150.798;2024-03-23T15:08:34;1.48;;;0.77;;
63398;SDS011;49533;-34.520;150.798;2024-03-23T15:11:06;1.17;;;0.75;;
63398;SDS011;49533;-34.520;150.798;2024-03-23T15:13:36;1.38;;;0.80;;
63398;SDS011;49533;-34.520;150.798;2024-03-23T15:16:04;1.13;;;0.82;;
63398;SDS011;49533;-34.520;150.798;2024-03-23T15:18:32;2.80;;;0.70;;
63398;SDS011;49533;-34.520;150.798;2024-03-23T15:21:02;1.45;;;0.82;;
63398;SDS011;49533;-34.520;150.798;2024-03-23T15:23:32;1.50;;;0.80;;
63398;SDS011;49533;-34.520;150.798;2024-03-23T15:26:00;2.20;;;1.05;;